ACA1789 CYYC-CYVR
Flight info
| Callsign | ACA1789 |
|---|---|
| Flight time | 1h 4m |
| Altitude | 34000 |
| Route | BOTAG Q894 BOOTH CANUC5 |
| Aircraft | B38M/M-SDE1FGHILORVWXY/HB1 |
Departure
| Time | 2026-05-03 23:26 |
|---|---|
| Airport | Calgary International Airport (CYYC) |
Arrival
| Time | 2026-05-04 00:30 |
|---|---|
| Airport | Vancouver International Airport (CYVR) |
| Time | Latitude | Longitude | Altitude | Speed | Heading |
|---|---|---|---|---|---|
| 2026-05-03 22:54 | 51.12831 | -114.00932 | 3562 ft | 0 kts | 59° |
| 2026-05-03 23:08 | 51.12824 | -114.00949 | 3557 ft | 4 kts | 59° |
| 2026-05-03 23:08 | 51.12811 | -114.00986 | 3557 ft | 4 kts | 59° |
| 2026-05-03 23:09 | 51.12798 | -114.01023 | 3559 ft | 4 kts | 59° |
| 2026-05-03 23:09 | 51.12790 | -114.01046 | 3558 ft | 0 kts | 59° |
| 2026-05-03 23:15 | 51.12792 | -114.01041 | 3557 ft | 1 kts | 54° |
| 2026-05-03 23:16 | 51.12798 | -114.01038 | 3557 ft | 1 kts | 7° |
| 2026-05-03 23:16 | 51.12805 | -114.01050 | 3559 ft | 2 kts | 297° |
| 2026-05-03 23:16 | 51.12811 | -114.01076 | 3556 ft | 6 kts | 287° |
| 2026-05-03 23:16 | 51.12807 | -114.01165 | 3559 ft | 11 kts | 238° |
| 2026-05-03 23:17 | 51.12742 | -114.01265 | 3562 ft | 15 kts | 221° |
| 2026-05-03 23:17 | 51.12653 | -114.01389 | 3562 ft | 19 kts | 220° |
| 2026-05-03 23:17 | 51.12602 | -114.01517 | 3562 ft | 9 kts | 265° |
| 2026-05-03 23:17 | 51.12602 | -114.01624 | 3562 ft | 8 kts | 270° |
| 2026-05-03 23:18 | 51.12602 | -114.01715 | 3562 ft | 10 kts | 267° |
| 2026-05-03 23:18 | 51.12553 | -114.01795 | 3562 ft | 13 kts | 189° |
| 2026-05-03 23:18 | 51.12450 | -114.01796 | 3562 ft | 17 kts | 180° |
| 2026-05-03 23:18 | 51.12318 | -114.01799 | 3558 ft | 21 kts | 181° |
| 2026-05-03 23:19 | 51.12159 | -114.01798 | 3562 ft | 25 kts | 179° |
| 2026-05-03 23:19 | 51.11974 | -114.01797 | 3563 ft | 28 kts | 180° |
| 2026-05-03 23:19 | 51.11776 | -114.01797 | 3562 ft | 27 kts | 179° |
| 2026-05-03 23:19 | 51.11574 | -114.01796 | 3561 ft | 31 kts | 180° |
| 2026-05-03 23:20 | 51.11344 | -114.01797 | 3558 ft | 35 kts | 180° |
| 2026-05-03 23:20 | 51.11116 | -114.01797 | 3556 ft | 29 kts | 180° |
| 2026-05-03 23:20 | 51.10906 | -114.01795 | 3562 ft | 31 kts | 182° |
| 2026-05-03 23:20 | 51.10689 | -114.01796 | 3562 ft | 32 kts | 179° |
| 2026-05-03 23:21 | 51.10503 | -114.01798 | 3562 ft | 23 kts | 180° |
| 2026-05-03 23:21 | 51.10345 | -114.01799 | 3561 ft | 24 kts | 180° |
| 2026-05-03 23:21 | 51.10173 | -114.01798 | 3562 ft | 25 kts | 180° |
| 2026-05-03 23:21 | 51.09994 | -114.01798 | 3556 ft | 26 kts | 179° |
| 2026-05-03 23:22 | 51.09723 | -114.01808 | 3562 ft | 7 kts | 203° |
| 2026-05-03 23:22 | 51.09693 | -114.01877 | 3562 ft | 9 kts | 258° |
| 2026-05-03 23:22 | 51.09691 | -114.01978 | 3562 ft | 10 kts | 270° |
| 2026-05-03 23:23 | 51.09691 | -114.02085 | 3563 ft | 10 kts | 269° |
| 2026-05-03 23:23 | 51.09720 | -114.02147 | 3560 ft | 6 kts | 13° |
| 2026-05-03 23:23 | 51.09766 | -114.02139 | 3563 ft | 3 kts | 360° |
| 2026-05-03 23:23 | 51.09767 | -114.02139 | 3563 ft | 0 kts | 360° |
| 2026-05-03 23:24 | 51.09770 | -114.02139 | 3563 ft | 0 kts | 360° |
| 2026-05-03 23:25 | 51.09806 | -114.02139 | 3563 ft | 14 kts | 0° |
| 2026-05-03 23:25 | 51.10148 | -114.02139 | 3561 ft | 84 kts | 360° |
| 2026-05-03 23:25 | 51.10939 | -114.02136 | 3561 ft | 140 kts | 1° |
| 2026-05-03 23:25 | 51.12042 | -114.02129 | 3780 ft | 169 kts | 2° |
| 2026-05-03 23:26 | 51.13255 | -114.02117 | 4461 ft | 175 kts | 2° |
| 2026-05-03 23:26 | 51.14482 | -114.02107 | 5211 ft | 180 kts | 359° |
| 2026-05-03 23:26 | 51.15785 | -114.02133 | 5717 ft | 198 kts | 358° |
| 2026-05-03 23:26 | 51.17245 | -114.02194 | 6092 ft | 226 kts | 357° |
| 2026-05-03 23:27 | 51.18881 | -114.02262 | 6620 ft | 245 kts | 357° |
| 2026-05-03 23:27 | 51.20631 | -114.02354 | 7290 ft | 255 kts | 353° |
| 2026-05-03 23:27 | 51.22303 | -114.03226 | 8191 ft | 257 kts | 327° |
| 2026-05-03 23:27 | 51.23542 | -114.05285 | 9043 ft | 263 kts | 301° |
| 2026-05-03 23:28 | 51.24032 | -114.08099 | 10047 ft | 269 kts | 278° |
| 2026-05-03 23:28 | 51.24004 | -114.11163 | 10630 ft | 288 kts | 266° |
| 2026-05-03 23:28 | 51.23267 | -114.14257 | 11195 ft | 310 kts | 243° |
| 2026-05-03 23:28 | 51.22138 | -114.17236 | 11971 ft | 315 kts | 245° |
| 2026-05-03 23:29 | 51.21063 | -114.20263 | 12965 ft | 315 kts | 245° |
| 2026-05-03 23:29 | 51.19989 | -114.23333 | 13871 ft | 318 kts | 245° |
| 2026-05-03 23:29 | 51.18937 | -114.26367 | 14695 ft | 320 kts | 246° |
| 2026-05-03 23:29 | 51.17853 | -114.29514 | 15482 ft | 326 kts | 246° |
| 2026-05-03 23:30 | 51.16758 | -114.32698 | 16268 ft | 330 kts | 247° |
| 2026-05-03 23:30 | 51.15645 | -114.35934 | 16999 ft | 336 kts | 248° |
| 2026-05-03 23:30 | 51.14515 | -114.39220 | 17761 ft | 340 kts | 248° |
| 2026-05-03 23:30 | 51.13369 | -114.42545 | 18437 ft | 346 kts | 249° |
| 2026-05-03 23:31 | 51.12198 | -114.45934 | 19070 ft | 350 kts | 248° |
| 2026-05-03 23:31 | 51.11023 | -114.49335 | 19739 ft | 353 kts | 248° |
| 2026-05-03 23:31 | 51.09832 | -114.52776 | 20404 ft | 356 kts | 248° |
| 2026-05-03 23:31 | 51.08631 | -114.56242 | 21056 ft | 359 kts | 248° |
| 2026-05-03 23:32 | 51.07429 | -114.59740 | 21697 ft | 361 kts | 251° |
| 2026-05-03 23:32 | 51.06654 | -114.63468 | 22290 ft | 354 kts | 263° |
| 2026-05-03 23:32 | 51.06054 | -114.67242 | 22883 ft | 359 kts | 262° |
| 2026-05-03 23:32 | 51.05430 | -114.71107 | 23513 ft | 362 kts | 262° |
| 2026-05-03 23:33 | 51.04810 | -114.74991 | 24024 ft | 364 kts | 262° |
| 2026-05-03 23:33 | 51.04185 | -114.78912 | 24519 ft | 367 kts | 262° |
| 2026-05-03 23:33 | 51.03546 | -114.82877 | 25013 ft | 370 kts | 262° |
| 2026-05-03 23:33 | 51.02905 | -114.86853 | 25480 ft | 373 kts | 262° |
| 2026-05-03 23:34 | 51.02258 | -114.90867 | 25907 ft | 377 kts | 262° |
| 2026-05-03 23:34 | 51.01611 | -114.94862 | 26366 ft | 379 kts | 262° |
| 2026-05-03 23:34 | 51.00951 | -114.98933 | 26850 ft | 382 kts | 262° |
| 2026-05-03 23:34 | 51.00285 | -115.03030 | 27312 ft | 385 kts | 262° |
| 2026-05-03 23:35 | 50.99611 | -115.07169 | 27776 ft | 387 kts | 262° |
| 2026-05-03 23:35 | 50.98933 | -115.11317 | 28211 ft | 391 kts | 262° |
| 2026-05-03 23:35 | 50.98246 | -115.15517 | 28680 ft | 393 kts | 262° |
| 2026-05-03 23:35 | 50.97559 | -115.19703 | 29153 ft | 395 kts | 262° |
| 2026-05-03 23:36 | 50.96863 | -115.23933 | 29549 ft | 398 kts | 262° |
| 2026-05-03 23:36 | 50.96158 | -115.28201 | 29990 ft | 401 kts | 262° |
| 2026-05-03 23:36 | 50.95448 | -115.32492 | 30339 ft | 404 kts | 261° |
| 2026-05-03 23:36 | 50.94734 | -115.36804 | 30668 ft | 407 kts | 261° |
| 2026-05-03 23:37 | 50.94008 | -115.41166 | 31029 ft | 409 kts | 261° |
| 2026-05-03 23:37 | 50.93283 | -115.45518 | 31468 ft | 409 kts | 261° |
| 2026-05-03 23:37 | 50.92555 | -115.49877 | 31911 ft | 409 kts | 262° |
| 2026-05-03 23:37 | 50.91822 | -115.54245 | 32265 ft | 409 kts | 262° |
| 2026-05-03 23:38 | 50.91091 | -115.58600 | 32740 ft | 408 kts | 262° |
| 2026-05-03 23:38 | 50.90363 | -115.62930 | 33163 ft | 408 kts | 262° |
| 2026-05-03 23:38 | 50.89631 | -115.67265 | 33512 ft | 408 kts | 262° |
| 2026-05-03 23:38 | 50.88896 | -115.71609 | 33882 ft | 409 kts | 262° |
| 2026-05-03 23:39 | 50.87418 | -115.80313 | 33913 ft | 408 kts | 261° |
| 2026-05-03 23:39 | 50.85944 | -115.88946 | 33932 ft | 409 kts | 261° |
| 2026-05-03 23:40 | 50.84453 | -115.97638 | 33937 ft | 410 kts | 261° |
| 2026-05-03 23:40 | 50.82955 | -116.06325 | 33922 ft | 409 kts | 261° |
| 2026-05-03 23:41 | 50.81453 | -116.14998 | 33925 ft | 409 kts | 261° |
| 2026-05-03 23:41 | 50.79945 | -116.23659 | 33907 ft | 410 kts | 261° |
| 2026-05-03 23:42 | 50.78420 | -116.32383 | 33936 ft | 412 kts | 261° |
| 2026-05-03 23:42 | 50.76890 | -116.41098 | 33952 ft | 412 kts | 261° |
| 2026-05-03 23:43 | 50.75280 | -116.49790 | 33954 ft | 413 kts | 259° |
| 2026-05-03 23:43 | 50.73595 | -116.58455 | 33977 ft | 412 kts | 259° |
| 2026-05-03 23:44 | 50.71924 | -116.67058 | 33952 ft | 413 kts | 259° |
| 2026-05-03 23:44 | 50.70228 | -116.75760 | 33960 ft | 415 kts | 258° |
| 2026-05-03 23:45 | 50.68528 | -116.84444 | 33981 ft | 415 kts | 258° |
| 2026-05-03 23:45 | 50.66820 | -116.93132 | 33956 ft | 415 kts | 258° |
| 2026-05-03 23:46 | 50.65103 | -117.01818 | 33970 ft | 415 kts | 258° |
| 2026-05-03 23:46 | 50.63380 | -117.10493 | 33904 ft | 414 kts | 258° |
| 2026-05-03 23:47 | 50.61647 | -117.19191 | 33957 ft | 417 kts | 258° |
| 2026-05-03 23:47 | 50.59916 | -117.27831 | 33957 ft | 416 kts | 258° |
| 2026-05-03 23:48 | 50.58165 | -117.36537 | 33929 ft | 416 kts | 258° |
| 2026-05-03 23:48 | 50.56413 | -117.45210 | 33954 ft | 417 kts | 258° |
| 2026-05-03 23:49 | 50.54649 | -117.53901 | 33925 ft | 417 kts | 258° |
| 2026-05-03 23:49 | 50.52874 | -117.62612 | 33945 ft | 419 kts | 258° |
| 2026-05-03 23:50 | 50.51391 | -117.69855 | 33924 ft | 419 kts | 258° |
| 2026-05-03 23:50 | 50.49300 | -117.80026 | 33941 ft | 418 kts | 257° |
| 2026-05-03 23:51 | 50.47516 | -117.88667 | 33920 ft | 418 kts | 257° |
| 2026-05-03 23:51 | 50.45709 | -117.97374 | 33917 ft | 419 kts | 257° |
| 2026-05-03 23:52 | 50.43892 | -118.06098 | 33925 ft | 422 kts | 257° |
| 2026-05-03 23:52 | 50.42065 | -118.14830 | 33955 ft | 420 kts | 257° |
| 2026-05-03 23:53 | 50.40237 | -118.23529 | 33946 ft | 420 kts | 257° |
| 2026-05-03 23:53 | 50.38399 | -118.32235 | 33959 ft | 421 kts | 257° |
| 2026-05-03 23:54 | 50.36568 | -118.40870 | 33958 ft | 421 kts | 257° |
| 2026-05-03 23:54 | 50.34718 | -118.49562 | 33939 ft | 420 kts | 257° |
| 2026-05-03 23:55 | 50.32861 | -118.58249 | 33953 ft | 421 kts | 257° |
| 2026-05-03 23:55 | 50.30997 | -118.66927 | 33934 ft | 419 kts | 257° |
| 2026-05-03 23:56 | 50.29130 | -118.75590 | 33956 ft | 421 kts | 257° |
| 2026-05-03 23:56 | 50.27250 | -118.84272 | 33924 ft | 424 kts | 256° |
| 2026-05-03 23:57 | 50.25360 | -118.92962 | 33931 ft | 425 kts | 256° |
| 2026-05-03 23:57 | 50.23454 | -119.01693 | 33968 ft | 424 kts | 256° |
| 2026-05-03 23:58 | 50.21540 | -119.10419 | 33940 ft | 425 kts | 256° |
| 2026-05-03 23:58 | 50.19617 | -119.19149 | 33926 ft | 425 kts | 256° |
| 2026-05-03 23:59 | 50.17683 | -119.27893 | 33918 ft | 428 kts | 256° |
| 2026-05-03 23:59 | 50.15729 | -119.36692 | 33912 ft | 429 kts | 256° |
| 2026-05-04 00:00 | 50.13769 | -119.45483 | 33929 ft | 429 kts | 256° |
| 2026-05-04 00:00 | 50.11816 | -119.54202 | 33919 ft | 429 kts | 256° |
| 2026-05-04 00:01 | 50.09843 | -119.62974 | 33887 ft | 429 kts | 256° |
| 2026-05-04 00:01 | 50.07847 | -119.71815 | 33902 ft | 436 kts | 256° |
| 2026-05-04 00:02 | 50.05827 | -119.80719 | 33920 ft | 436 kts | 256° |
| 2026-05-04 00:02 | 50.03801 | -119.89616 | 33927 ft | 436 kts | 256° |
| 2026-05-04 00:03 | 50.01779 | -119.98455 | 33935 ft | 436 kts | 256° |
| 2026-05-04 00:03 | 49.99741 | -120.07334 | 33913 ft | 437 kts | 256° |
| 2026-05-04 00:04 | 49.97677 | -120.16280 | 33932 ft | 441 kts | 256° |
| 2026-05-04 00:04 | 49.95601 | -120.25242 | 33938 ft | 441 kts | 256° |
| 2026-05-04 00:05 | 49.93537 | -120.34116 | 33353 ft | 433 kts | 256° |
| 2026-05-04 00:05 | 49.92513 | -120.38507 | 32784 ft | 432 kts | 255° |
| 2026-05-04 00:05 | 49.91503 | -120.42825 | 32306 ft | 428 kts | 255° |
| 2026-05-04 00:06 | 49.90493 | -120.47141 | 31828 ft | 424 kts | 255° |
| 2026-05-04 00:06 | 49.89488 | -120.51423 | 31395 ft | 420 kts | 255° |
| 2026-05-04 00:06 | 49.88490 | -120.55664 | 30967 ft | 417 kts | 255° |
| 2026-05-04 00:06 | 49.87497 | -120.59879 | 30517 ft | 414 kts | 255° |
| 2026-05-04 00:07 | 49.86512 | -120.64054 | 30062 ft | 411 kts | 254° |
| 2026-05-04 00:07 | 49.85530 | -120.68205 | 29555 ft | 408 kts | 254° |
| 2026-05-04 00:07 | 49.84559 | -120.72305 | 29112 ft | 403 kts | 254° |
| 2026-05-04 00:07 | 49.83597 | -120.76356 | 28680 ft | 398 kts | 254° |
| 2026-05-04 00:08 | 49.82655 | -120.80315 | 28265 ft | 394 kts | 254° |
| 2026-05-04 00:08 | 49.81715 | -120.84262 | 27860 ft | 389 kts | 254° |
| 2026-05-04 00:08 | 49.80781 | -120.88173 | 27433 ft | 386 kts | 253° |
| 2026-05-04 00:08 | 49.79854 | -120.92051 | 27047 ft | 382 kts | 253° |
| 2026-05-04 00:09 | 49.78934 | -120.95892 | 26652 ft | 379 kts | 253° |
| 2026-05-04 00:09 | 49.78017 | -120.99714 | 26241 ft | 376 kts | 253° |
| 2026-05-04 00:09 | 49.77416 | -121.02214 | 25991 ft | 374 kts | 253° |
| 2026-05-04 00:09 | 49.76511 | -121.05974 | 25615 ft | 371 kts | 253° |
| 2026-05-04 00:10 | 49.75613 | -121.09700 | 25238 ft | 368 kts | 253° |
| 2026-05-04 00:10 | 49.74719 | -121.13401 | 24843 ft | 366 kts | 253° |
| 2026-05-04 00:10 | 49.73832 | -121.17069 | 24479 ft | 364 kts | 253° |
| 2026-05-04 00:10 | 49.72948 | -121.20716 | 24098 ft | 362 kts | 253° |
| 2026-05-04 00:11 | 49.72063 | -121.24364 | 23708 ft | 361 kts | 253° |
| 2026-05-04 00:11 | 49.71181 | -121.27988 | 23309 ft | 359 kts | 252° |
| 2026-05-04 00:11 | 49.70302 | -121.31601 | 22877 ft | 358 kts | 252° |
| 2026-05-04 00:11 | 49.69440 | -121.35135 | 22512 ft | 355 kts | 252° |
| 2026-05-04 00:12 | 49.68572 | -121.38685 | 22144 ft | 352 kts | 252° |
| 2026-05-04 00:12 | 49.67712 | -121.42202 | 21779 ft | 349 kts | 252° |
| 2026-05-04 00:12 | 49.66859 | -121.45684 | 21412 ft | 347 kts | 252° |
| 2026-05-04 00:12 | 49.66008 | -121.49147 | 21066 ft | 344 kts | 252° |
| 2026-05-04 00:13 | 49.65161 | -121.52595 | 20702 ft | 342 kts | 252° |
| 2026-05-04 00:13 | 49.64320 | -121.56016 | 20355 ft | 340 kts | 252° |
| 2026-05-04 00:13 | 49.63484 | -121.59411 | 20012 ft | 337 kts | 252° |
| 2026-05-04 00:13 | 49.62651 | -121.62787 | 19669 ft | 336 kts | 252° |
| 2026-05-04 00:14 | 49.61818 | -121.66159 | 19311 ft | 335 kts | 252° |
| 2026-05-04 00:14 | 49.60991 | -121.69502 | 18959 ft | 334 kts | 252° |
| 2026-05-04 00:14 | 49.60173 | -121.72804 | 18629 ft | 334 kts | 251° |
| 2026-05-04 00:14 | 49.59344 | -121.76147 | 18290 ft | 333 kts | 251° |
| 2026-05-04 00:15 | 49.58519 | -121.79466 | 17913 ft | 332 kts | 251° |
| 2026-05-04 00:15 | 49.57700 | -121.82760 | 17575 ft | 329 kts | 251° |
| 2026-05-04 00:15 | 49.56882 | -121.86043 | 17243 ft | 326 kts | 251° |
| 2026-05-04 00:15 | 49.56071 | -121.89295 | 16907 ft | 323 kts | 251° |
| 2026-05-04 00:16 | 49.55277 | -121.92473 | 16577 ft | 321 kts | 251° |
| 2026-05-04 00:16 | 49.54468 | -121.95706 | 16248 ft | 318 kts | 251° |
| 2026-05-04 00:16 | 49.53685 | -121.98833 | 15923 ft | 316 kts | 251° |
| 2026-05-04 00:16 | 49.52894 | -122.01983 | 15585 ft | 315 kts | 251° |
| 2026-05-04 00:17 | 49.52054 | -122.05076 | 15264 ft | 312 kts | 243° |
| 2026-05-04 00:17 | 49.50915 | -122.07916 | 14919 ft | 311 kts | 239° |
| 2026-05-04 00:17 | 49.49762 | -122.10732 | 14594 ft | 310 kts | 239° |
| 2026-05-04 00:17 | 49.48620 | -122.13545 | 14265 ft | 310 kts | 239° |
| 2026-05-04 00:18 | 49.47483 | -122.16360 | 13939 ft | 310 kts | 239° |
| 2026-05-04 00:18 | 49.46359 | -122.19188 | 13566 ft | 310 kts | 239° |
| 2026-05-04 00:18 | 49.45237 | -122.22018 | 13201 ft | 310 kts | 240° |
| 2026-05-04 00:18 | 49.44114 | -122.24848 | 12857 ft | 308 kts | 240° |
| 2026-05-04 00:19 | 49.43003 | -122.27645 | 12536 ft | 306 kts | 240° |
| 2026-05-04 00:19 | 49.41895 | -122.30430 | 12225 ft | 304 kts | 240° |
| 2026-05-04 00:19 | 49.40799 | -122.33179 | 11997 ft | 298 kts | 239° |
| 2026-05-04 00:19 | 49.39667 | -122.35753 | 11794 ft | 293 kts | 231° |
| 2026-05-04 00:20 | 49.38306 | -122.38079 | 11458 ft | 293 kts | 229° |
| 2026-05-04 00:20 | 49.36940 | -122.40409 | 11074 ft | 294 kts | 229° |
| 2026-05-04 00:20 | 49.35575 | -122.42755 | 10696 ft | 296 kts | 229° |
| 2026-05-04 00:20 | 49.34196 | -122.45132 | 10311 ft | 298 kts | 229° |
| 2026-05-04 00:21 | 49.32810 | -122.47511 | 9923 ft | 301 kts | 229° |
| 2026-05-04 00:21 | 49.31396 | -122.49898 | 9430 ft | 304 kts | 229° |
| 2026-05-04 00:21 | 49.29975 | -122.52302 | 9024 ft | 304 kts | 229° |
| 2026-05-04 00:21 | 49.28561 | -122.54698 | 8645 ft | 304 kts | 229° |
| 2026-05-04 00:22 | 49.27143 | -122.57122 | 8197 ft | 307 kts | 229° |
| 2026-05-04 00:22 | 49.25719 | -122.59551 | 7771 ft | 308 kts | 228° |
| 2026-05-04 00:22 | 49.24286 | -122.61992 | 7383 ft | 308 kts | 228° |
| 2026-05-04 00:22 | 49.22854 | -122.64431 | 6989 ft | 309 kts | 228° |
| 2026-05-04 00:23 | 49.21442 | -122.66831 | 6578 ft | 300 kts | 228° |
| 2026-05-04 00:23 | 49.20205 | -122.69337 | 6149 ft | 292 kts | 240° |
| 2026-05-04 00:23 | 49.19218 | -122.72006 | 5720 ft | 284 kts | 240° |
| 2026-05-04 00:23 | 49.18257 | -122.74580 | 5362 ft | 275 kts | 240° |
| 2026-05-04 00:24 | 49.17317 | -122.77074 | 5012 ft | 267 kts | 240° |
| 2026-05-04 00:24 | 49.16433 | -122.79478 | 4662 ft | 259 kts | 246° |
| 2026-05-04 00:24 | 49.16147 | -122.82087 | 4265 ft | 251 kts | 277° |
| 2026-05-04 00:24 | 49.16451 | -122.84638 | 4075 ft | 236 kts | 281° |
| 2026-05-04 00:25 | 49.16718 | -122.87046 | 3838 ft | 226 kts | 279° |
| 2026-05-04 00:25 | 49.16975 | -122.89383 | 3503 ft | 221 kts | 280° |
| 2026-05-04 00:25 | 49.17229 | -122.91627 | 3201 ft | 205 kts | 280° |
| 2026-05-04 00:25 | 49.17467 | -122.93690 | 2894 ft | 189 kts | 280° |
| 2026-05-04 00:26 | 49.17686 | -122.95571 | 2686 ft | 175 kts | 280° |
| 2026-05-04 00:26 | 49.17891 | -122.97345 | 2455 ft | 164 kts | 281° |
| 2026-05-04 00:26 | 49.18080 | -122.98993 | 2227 ft | 148 kts | 281° |
| 2026-05-04 00:26 | 49.18251 | -123.00465 | 2039 ft | 140 kts | 280° |
| 2026-05-04 00:27 | 49.18422 | -123.01948 | 1854 ft | 144 kts | 280° |
| 2026-05-04 00:27 | 49.18597 | -123.03452 | 1678 ft | 144 kts | 280° |
| 2026-05-04 00:27 | 49.18767 | -123.04926 | 1461 ft | 141 kts | 280° |
| 2026-05-04 00:27 | 49.18939 | -123.06412 | 1286 ft | 139 kts | 279° |
| 2026-05-04 00:28 | 49.19104 | -123.07845 | 1111 ft | 139 kts | 279° |
| 2026-05-04 00:28 | 49.19271 | -123.09308 | 899 ft | 141 kts | 279° |
| 2026-05-04 00:28 | 49.19445 | -123.10784 | 752 ft | 142 kts | 279° |
| 2026-05-04 00:28 | 49.19620 | -123.12275 | 493 ft | 141 kts | 281° |
| 2026-05-04 00:29 | 49.19793 | -123.13747 | 321 ft | 139 kts | 279° |
| 2026-05-04 00:29 | 49.19957 | -123.15179 | 145 ft | 135 kts | 280° |
| 2026-05-04 00:29 | 49.20116 | -123.16578 | 30 ft | 129 kts | 281° |
| 2026-05-04 00:29 | 49.20249 | -123.17742 | 27 ft | 82 kts | 280° |
| 2026-05-04 00:30 | 49.20307 | -123.18283 | 27 ft | 30 kts | 271° |
| 2026-05-04 00:30 | 49.20282 | -123.18551 | 27 ft | 17 kts | 252° |
| 2026-05-04 00:30 | 49.20243 | -123.18722 | 27 ft | 18 kts | 250° |
| 2026-05-04 00:30 | 49.20190 | -123.18868 | 27 ft | 13 kts | 194° |
| 2026-05-04 00:31 | 49.20155 | -123.18799 | 27 ft | 10 kts | 95° |
| 2026-05-04 00:31 | 49.20144 | -123.18680 | 27 ft | 13 kts | 101° |
| 2026-05-04 00:31 | 49.20125 | -123.18527 | 27 ft | 17 kts | 101° |
| 2026-05-04 00:31 | 49.20103 | -123.18335 | 27 ft | 20 kts | 99° |
| 2026-05-04 00:32 | 49.20077 | -123.18105 | 27 ft | 24 kts | 99° |
| 2026-05-04 00:32 | 49.20053 | -123.17899 | 27 ft | 10 kts | 106° |
| 2026-05-04 00:32 | 49.20000 | -123.17842 | 27 ft | 11 kts | 179° |
| 2026-05-04 00:32 | 49.19938 | -123.17785 | 27 ft | 12 kts | 109° |
| 2026-05-04 00:33 | 49.19923 | -123.17640 | 27 ft | 15 kts | 100° |
| 2026-05-04 00:33 | 49.19873 | -123.17497 | 27 ft | 6 kts | 156° |
| 2026-05-04 00:33 | 49.19844 | -123.17479 | 27 ft | 4 kts | 157° |
| 2026-05-04 00:34 | 49.19834 | -123.17472 | 27 ft | 0 kts | 157° |
| 2026-05-04 00:34 | 49.19833 | -123.17471 | 27 ft | 0 kts | 157° |